Time;durP1;ratioP1;P1;durP2;ratioP2;P2;SDS_P1;SDS_P2;PMS_P1;PMS_P2;Temp;Humidity;BMP_temperature;BMP_pressure;BME280_temperature;BME280_humidity;BME280_pressure;Samples;Min_cycle;Max_cycle;Signal;HPM_P1;HPM_P2
2022/03/02 00:00:16;;;;;;;9.77;7.75;;;6.50;99.90;;;;;;5034053;28;20698;-54
2022/03/02 00:02:44;;;;;;;7.00;5.70;;;6.50;99.90;;;;;;5051347;28;20265;-53
2022/03/02 00:05:14;;;;;;;8.98;7.50;;;6.50;99.90;;;;;;5047673;28;20549;-52
2022/03/02 00:07:42;;;;;;;11.68;8.30;;;6.50;99.90;;;;;;5047867;28;20208;-50
2022/03/02 00:10:11;;;;;;;7.90;6.65;;;6.50;99.90;;;;;;5052541;28;20277;-52
2022/03/02 00:12:39;;;;;;;8.85;7.30;;;6.50;99.90;;;;;;5050504;28;20262;-52
2022/03/02 00:15:08;;;;;;;7.85;5.80;;;6.50;99.90;;;;;;5039099;28;20247;-52
2022/03/02 00:17:39;;;;;;;10.10;6.85;;;6.50;99.90;;;;;;5050693;28;20614;-53
2022/03/02 00:20:08;;;;;;;7.55;5.57;;;6.50;99.90;;;;;;5047674;28;20239;-53
2022/03/02 00:22:37;;;;;;;8.68;6.38;;;6.50;99.90;;;;;;5050611;28;20258;-52
2022/03/02 00:25:06;;;;;;;7.88;6.90;;;6.50;99.90;;;;;;5051548;28;20549;-53
2022/03/02 00:27:34;;;;;;;11.23;7.40;;;6.50;99.90;;;;;;5050301;28;20224;-53
2022/03/02 00:30:02;;;;;;;9.25;7.65;;;6.50;99.90;;;;;;5033571;28;20189;-53
2022/03/02 00:32:31;;;;;;;7.95;6.80;;;6.50;99.90;;;;;;5047358;28;20227;-53
2022/03/02 00:34:59;;;;;;;9.90;6.90;;;6.50;99.90;;;;;;5029955;28;20181;-51
2022/03/02 00:37:32;;;;;;;10.75;6.75;;;6.50;99.90;;;;;;5050894;28;20737;-53
2022/03/02 00:40:00;;;;;;;8.13;6.90;;;6.50;99.90;;;;;;5051638;28;20227;-53
2022/03/02 00:42:29;;;;;;;10.27;6.22;;;6.50;99.90;;;;;;5049693;28;20626;-53
2022/03/02 00:44:58;;;;;;;8.45;6.65;;;6.50;99.90;;;;;;5031582;28;20189;-53
2022/03/02 00:47:26;;;;;;;8.80;6.75;;;6.50;99.90;;;;;;5047355;28;20319;-53
2022/03/02 00:49:56;;;;;;;8.05;7.03;;;6.50;99.90;;;;;;5048259;28;20285;-53
2022/03/02 00:52:25;;;;;;;8.27;7.32;;;6.50;99.90;;;;;;5046854;28;20595;-54
2022/03/02 00:54:53;;;;;;;6.72;6.03;;;6.50;99.90;;;;;;5051047;28;20254;-54
2022/03/02 00:57:21;;;;;;;9.20;7.05;;;6.50;99.90;;;;;;5032422;28;20636;-53
2022/03/02 00:59:49;;;;;;;9.20;6.75;;;6.50;99.90;;;;;;5049870;28;20192;-53
2022/03/02 01:02:17;;;;;;;7.55;5.63;;;6.50;99.90;;;;;;5049935;28;20224;-51
2022/03/02 01:04:45;;;;;;;7.07;6.38;;;6.50;99.90;;;;;;5049362;28;20203;-53
2022/03/02 01:07:15;;;;;;;6.63;6.00;;;6.50;99.90;;;;;;5050283;28;20240;-50
2022/03/02 01:09:44;;;;;;;8.40;6.78;;;6.50;99.90;;;;;;5051873;28;20271;-53
2022/03/02 01:12:12;;;;;;;8.90;6.25;;;6.50;99.90;;;;;;5050223;28;20715;-52
2022/03/02 01:14:40;;;;;;;6.97;5.97;;;6.50;99.90;;;;;;5044557;28;20196;-53
2022/03/02 01:17:08;;;;;;;7.35;5.55;;;6.50;99.90;;;;;;5032522;28;20262;-52
2022/03/02 01:19:39;;;;;;;7.47;6.18;;;6.50;99.90;;;;;;5050017;28;20341;-53
2022/03/02 01:22:07;;;;;;;7.85;5.85;;;6.50;99.90;;;;;;5045650;28;20255;-54
2022/03/02 01:24:36;;;;;;;9.48;7.15;;;6.50;99.90;;;;;;5049852;28;20188;-53
2022/03/02 01:27:04;;;;;;;6.95;6.07;;;6.50;99.90;;;;;;5049710;28;20250;-52
2022/03/02 01:29:34;;;;;;;7.10;6.40;;;6.50;99.90;;;;;;5049076;28;20741;-54
2022/03/02 01:32:03;;;;;;;7.70;6.00;;;6.50;99.90;;;;;;5049765;28;20749;-52
2022/03/02 01:34:31;;;;;;;7.30;6.10;;;6.50;99.90;;;;;;5038253;28;20201;-53
2022/03/02 01:36:59;;;;;;;8.40;6.50;;;6.40;99.90;;;;;;5048943;28;20294;-53
2022/03/02 01:39:28;;;;;;;8.35;6.22;;;6.40;99.90;;;;;;5032668;28;20682;-53
2022/03/02 01:42:00;;;;;;;8.10;6.22;;;6.40;99.90;;;;;;5049757;28;20216;-53
2022/03/02 01:44:30;;;;;;;6.93;5.78;;;6.40;99.90;;;;;;5047326;28;20318;-53
2022/03/02 01:46:58;;;;;;;8.05;6.38;;;6.40;99.90;;;;;;5044635;28;20223;-53
2022/03/02 01:49:26;;;;;;;8.52;6.35;;;6.40;99.90;;;;;;5050030;28;20231;-52
2022/03/02 01:51:54;;;;;;;8.95;7.32;;;6.40;99.90;;;;;;5045909;28;20699;-54
2022/03/02 01:54:23;;;;;;;6.07;5.47;;;6.40;99.90;;;;;;5049404;28;20395;-53
2022/03/02 01:56:51;;;;;;;7.20;6.10;;;6.40;99.90;;;;;;5049530;28;20221;-51
2022/03/02 01:59:20;;;;;;;6.93;5.13;;;6.40;99.90;;;;;;5047525;28;20204;-53
2022/03/02 02:01:49;;;;;;;8.13;6.43;;;6.40;99.90;;;;;;5045028;28;20289;-54
2022/03/02 02:04:18;;;;;;;5.78;5.28;;;6.40;99.90;;;;;;5049801;28;20275;-52
2022/03/02 02:06:46;;;;;;;7.00;6.30;;;6.40;99.90;;;;;;5048016;28;20258;-54
2022/03/02 02:09:14;;;;;;;6.95;6.22;;;6.40;99.90;;;;;;5050132;28;20239;-53
2022/03/02 02:11:42;;;;;;;8.05;6.15;;;6.40;99.90;;;;;;5031672;28;20580;-53
2022/03/02 02:14:10;;;;;;;9.32;7.28;;;6.40;99.90;;;;;;5032383;28;20205;-53
2022/03/02 02:16:39;;;;;;;9.98;6.65;;;6.40;99.90;;;;;;5042724;28;20676;-55
2022/03/02 02:19:08;;;;;;;7.63;5.35;;;6.40;99.90;;;;;;5050065;28;20200;-52
2022/03/02 02:21:37;;;;;;;6.68;5.65;;;6.40;99.90;;;;;;5047695;28;20228;-53
2022/03/02 02:24:06;;;;;;;6.03;4.95;;;6.40;99.90;;;;;;5049130;28;20605;-51
2022/03/02 02:26:34;;;;;;;5.90;5.15;;;6.40;99.90;;;;;;5048782;28;20224;-53
2022/03/02 02:29:02;;;;;;;5.32;4.78;;;6.40;99.90;;;;;;5049706;28;20640;-53
2022/03/02 02:31:30;;;;;;;6.07;5.43;;;6.40;99.90;;;;;;5050178;28;20212;-53
2022/03/02 02:33:59;;;;;;;8.38;5.68;;;6.40;99.90;;;;;;5049640;28;20203;-54
2022/03/02 02:36:27;;;;;;;6.03;5.18;;;6.40;99.90;;;;;;5044126;28;20220;-53
2022/03/02 02:38:57;;;;;;;6.60;5.75;;;6.40;99.90;;;;;;5050075;28;20192;-53
2022/03/02 02:41:25;;;;;;;5.88;5.28;;;6.40;99.90;;;;;;5049222;28;20239;-54
2022/03/02 02:43:53;;;;;;;5.60;4.65;;;6.40;99.90;;;;;;5049812;28;20748;-54
2022/03/02 02:46:21;;;;;;;5.07;4.68;;;6.40;99.90;;;;;;5046834;28;20223;-52
2022/03/02 02:48:49;;;;;;;5.88;5.28;;;6.40;99.90;;;;;;5050373;28;20275;-54
2022/03/02 02:51:17;;;;;;;5.75;4.85;;;6.40;99.90;;;;;;5045673;28;20228;-51
2022/03/02 02:53:46;;;;;;;6.28;4.65;;;6.40;99.90;;;;;;5049568;28;20270;-53
2022/03/02 02:56:15;;;;;;;7.75;5.97;;;6.40;99.90;;;;;;5052209;28;20192;-52
2022/03/02 02:58:43;;;;;;;6.13;5.40;;;6.40;99.90;;;;;;5053007;28;20224;-53
2022/03/02 03:01:11;;;;;;;6.65;5.47;;;6.40;99.90;;;;;;5042412;28;20637;-52
2022/03/02 03:03:40;;;;;;;6.35;4.70;;;6.40;99.90;;;;;;5053335;28;20690;-53
2022/03/02 03:06:08;;;;;;;4.93;3.95;;;6.40;99.90;;;;;;5051337;28;20192;-52
2022/03/02 03:08:36;;;;;;;6.40;5.00;;;6.40;99.90;;;;;;5052776;28;20743;-53
2022/03/02 03:11:05;;;;;;;4.85;4.30;;;6.40;99.90;;;;;;5052581;28;20287;-51
2022/03/02 03:13:34;;;;;;;5.88;4.93;;;6.40;99.90;;;;;;5049430;28;20243;-54
2022/03/02 03:16:02;;;;;;;5.85;4.80;;;6.40;99.90;;;;;;5052624;28;20238;-52
2022/03/02 03:18:30;;;;;;;6.53;4.82;;;6.40;99.90;;;;;;5051846;28;20224;-52
2022/03/02 03:20:58;;;;;;;6.82;5.40;;;6.40;99.90;;;;;;5051789;28;20656;-53
2022/03/02 03:23:27;;;;;;;7.03;5.70;;;6.40;99.90;;;;;;5052244;28;20223;-53
2022/03/02 03:25:55;;;;;;;6.60;5.47;;;6.40;99.90;;;;;;5052757;28;20586;-53
2022/03/02 03:28:23;;;;;;;5.53;5.00;;;6.40;99.90;;;;;;5052119;28;20270;-53
2022/03/02 03:30:53;;;;;;;7.53;4.95;;;6.40;99.90;;;;;;5051759;28;20247;-53
2022/03/02 03:33:21;;;;;;;8.35;6.32;;;6.40;99.90;;;;;;5051192;28;20303;-53
2022/03/02 03:35:49;;;;;;;8.13;5.65;;;6.30;99.90;;;;;;5050697;28;20314;-52
2022/03/02 03:38:17;;;;;;;5.28;4.72;;;6.30;99.90;;;;;;5050412;28;20248;-53
2022/03/02 03:40:45;;;;;;;6.15;5.30;;;6.30;99.90;;;;;;5052719;28;20244;-55
2022/03/02 03:43:13;;;;;;;6.43;5.10;;;6.30;99.90;;;;;;5052214;28;20271;-53
2022/03/02 03:45:41;;;;;;;5.80;5.25;;;6.30;99.90;;;;;;5048870;28;20243;-53
2022/03/02 03:48:11;;;;;;;7.50;5.57;;;6.30;99.90;;;;;;5049444;28;20216;-52
2022/03/02 03:50:39;;;;;;;5.63;4.75;;;6.30;99.90;;;;;;5051691;28;20531;-53
2022/03/02 03:53:08;;;;;;;6.70;6.00;;;6.30;99.90;;;;;;5052654;28;20641;-53
2022/03/02 03:55:38;;;;;;;6.53;5.82;;;6.30;99.90;;;;;;5051656;28;20300;-54
2022/03/02 03:58:07;;;;;;;6.97;6.00;;;6.30;99.90;;;;;;5051544;28;20216;-52
2022/03/02 04:00:35;;;;;;;6.03;4.95;;;6.30;99.90;;;;;;5050271;28;20196;-52
2022/03/02 04:03:04;;;;;;;8.45;5.95;;;6.30;99.90;;;;;;5051881;28;20221;-53
2022/03/02 04:05:34;;;;;;;6.35;5.18;;;6.30;99.90;;;;;;5049966;28;20644;-53
2022/03/02 04:08:02;;;;;;;8.52;6.30;;;6.30;99.90;;;;;;5050897;28;20216;-54
2022/03/02 04:10:30;;;;;;;6.65;5.63;;;6.30;99.90;;;;;;5034745;28;20627;-53
2022/03/02 04:12:58;;;;;;;6.93;5.90;;;6.30;99.90;;;;;;5035275;28;20311;-53
2022/03/02 04:15:26;;;;;;;7.20;5.95;;;6.30;99.90;;;;;;5042695;28;20236;-51
2022/03/02 04:17:54;;;;;;;8.07;7.05;;;6.30;99.90;;;;;;5050880;28;20295;-51
2022/03/02 04:20:22;;;;;;;8.77;6.18;;;6.30;99.90;;;;;;5050466;28;20227;-53
2022/03/02 04:22:52;;;;;;;7.50;5.47;;;6.30;99.90;;;;;;5050953;28;20220;-53
2022/03/02 04:25:20;;;;;;;7.35;5.78;;;6.20;99.90;;;;;;5051897;28;20271;-54
2022/03/02 04:27:48;;;;;;;6.22;5.45;;;6.30;99.90;;;;;;5049951;28;20630;-53
2022/03/02 04:30:16;;;;;;;8.05;5.38;;;6.30;99.90;;;;;;5038026;28;20251;-53
2022/03/02 04:32:44;;;;;;;7.97;6.53;;;6.30;99.90;;;;;;5047940;28;20224;-52
2022/03/02 04:35:13;;;;;;;8.15;5.78;;;6.20;99.90;;;;;;5045732;28;20262;-52
2022/03/02 04:37:43;;;;;;;6.88;5.82;;;6.20;99.90;;;;;;5041408;28;20225;-53
2022/03/02 04:40:13;;;;;;;5.60;4.70;;;6.20;99.90;;;;;;5051704;28;20192;-52
2022/03/02 04:42:42;;;;;;;7.20;5.38;;;6.20;99.90;;;;;;5033252;28;20235;-53
2022/03/02 04:45:12;;;;;;;7.15;5.00;;;6.30;99.90;;;;;;5034157;28;20556;-53
2022/03/02 04:47:40;;;;;;;4.80;4.30;;;6.30;99.90;;;;;;5050950;28;20470;-52
2022/03/02 04:50:11;;;;;;;4.82;4.38;;;6.30;99.90;;;;;;5046478;28;20220;-52
2022/03/02 04:52:39;;;;;;;6.65;5.43;;;6.30;99.90;;;;;;5042302;28;20258;-53
2022/03/02 04:55:09;;;;;;;6.28;4.82;;;6.30;99.90;;;;;;5051203;28;20208;-53
2022/03/02 04:57:41;;;;;;;7.82;6.30;;;6.30;99.90;;;;;;5048470;28;20228;-53
2022/03/02 05:00:12;;;;;;;8.05;5.40;;;6.30;99.90;;;;;;5051556;28;20354;-54
2022/03/02 05:02:40;;;;;;;5.90;4.43;;;6.30;99.90;;;;;;5050455;28;20278;-52
2022/03/02 05:05:10;;;;;;;5.70;4.93;;;6.30;99.90;;;;;;5045601;28;20186;-52
2022/03/02 05:07:38;;;;;;;6.95;5.50;;;6.30;99.90;;;;;;5047342;28;20224;-52
2022/03/02 05:10:07;;;;;;;6.25;5.65;;;6.30;99.90;;;;;;5051443;28;20287;-52
2022/03/02 05:12:36;;;;;;;5.50;4.80;;;6.20;99.90;;;;;;5051423;28;20304;-52
2022/03/02 05:15:06;;;;;;;6.35;5.75;;;6.20;99.90;;;;;;5045747;28;20197;-52
2022/03/02 05:17:35;;;;;;;9.07;6.15;;;6.30;99.90;;;;;;5040800;28;20221;-53
2022/03/02 05:20:04;;;;;;;7.28;5.43;;;6.20;99.90;;;;;;5048622;28;20521;-51
2022/03/02 05:22:35;;;;;;;7.43;5.88;;;6.20;99.90;;;;;;5050078;28;20239;-53
2022/03/02 05:25:04;;;;;;;7.88;5.82;;;6.30;99.90;;;;;;5050294;28;20192;-52
2022/03/02 05:27:32;;;;;;;6.75;5.38;;;6.20;99.90;;;;;;5050018;28;20564;-54
2022/03/02 05:30:01;;;;;;;6.50;5.72;;;6.20;99.90;;;;;;5041347;28;20296;-52
2022/03/02 05:32:30;;;;;;;7.05;6.05;;;6.20;99.90;;;;;;5041690;28;20228;-52
2022/03/02 05:34:58;;;;;;;8.02;6.22;;;6.20;99.90;;;;;;5046355;28;20208;-54
2022/03/02 05:37:26;;;;;;;6.70;5.50;;;6.20;99.90;;;;;;5041921;28;20209;-52
2022/03/02 05:39:54;;;;;;;6.03;4.70;;;6.20;99.90;;;;;;5045428;28;20250;-53
2022/03/02 05:42:25;;;;;;;5.95;4.85;;;6.20;99.90;;;;;;5050063;28;20224;-53
2022/03/02 05:44:53;;;;;;;6.55;5.85;;;6.20;99.90;;;;;;5047737;28;20876;-53
2022/03/02 05:47:21;;;;;;;6.47;5.35;;;6.20;99.90;;;;;;5045682;28;20220;-53
2022/03/02 05:49:50;;;;;;;7.03;5.38;;;6.20;99.90;;;;;;5047933;28;20642;-52
2022/03/02 05:52:19;;;;;;;6.85;5.05;;;6.20;99.90;;;;;;5046939;28;20584;-53
2022/03/02 05:54:47;;;;;;;7.63;6.68;;;6.20;99.90;;;;;;5050097;28;20207;-53
2022/03/02 05:57:15;;;;;;;7.40;5.70;;;6.20;99.90;;;;;;5049866;28;20293;-53
2022/03/02 05:59:44;;;;;;;6.78;5.55;;;6.20;99.90;;;;;;5044658;28;20655;-53
2022/03/02 06:02:12;;;;;;;6.05;5.45;;;6.20;99.90;;;;;;5049311;28;20281;-52
2022/03/02 06:04:40;;;;;;;6.68;5.10;;;6.20;99.90;;;;;;5049104;28;20216;-52
2022/03/02 06:07:10;;;;;;;5.32;4.82;;;6.20;99.90;;;;;;5046256;28;20224;-53
2022/03/02 06:09:43;;;;;;;5.43;4.45;;;6.20;99.90;;;;;;5050165;28;20706;-54
2022/03/02 06:12:12;;;;;;;9.30;5.15;;;6.20;99.90;;;;;;5048420;28;20236;-51
2022/03/02 06:14:41;;;;;;;10.13;4.70;;;6.20;99.90;;;;;;5041318;28;20248;-53
2022/03/02 06:17:10;;;;;;;7.15;5.35;;;6.10;99.90;;;;;;5040845;28;20581;-52
2022/03/02 06:19:40;;;;;;;6.20;4.53;;;6.20;99.90;;;;;;5048718;28;20200;-52
2022/03/02 06:22:11;;;;;;;6.18;5.07;;;6.20;99.90;;;;;;5040795;28;20227;-53
2022/03/02 06:24:39;;;;;;;5.15;4.57;;;6.10;99.90;;;;;;5049521;28;20193;-52
2022/03/02 06:27:07;;;;;;;7.93;5.45;;;6.20;99.90;;;;;;5049392;28;20227;-52
2022/03/02 06:29:36;;;;;;;7.45;5.60;;;6.10;99.90;;;;;;5043826;28;20201;-53
2022/03/02 06:32:05;;;;;;;6.57;5.30;;;6.10;99.90;;;;;;5045311;28;20243;-53
2022/03/02 06:34:33;;;;;;;6.63;5.40;;;6.10;99.90;;;;;;5054694;28;20227;-54
2022/03/02 06:37:01;;;;;;;6.88;5.85;;;6.10;99.90;;;;;;5040336;28;20227;-53
2022/03/02 06:39:31;;;;;;;10.25;5.80;;;6.10;99.90;;;;;;5054117;28;20652;-53
2022/03/02 06:42:09;;;;;;;7.45;5.95;;;6.10;99.90;;;;;;5053529;28;20247;-52
2022/03/02 06:44:45;;;;;;;6.35;5.50;;;6.10;99.90;;;;;;5036429;28;20615;-53
2022/03/02 06:47:18;;;;;;;8.05;5.82;;;6.10;99.90;;;;;;5052901;28;20317;-53
2022/03/02 06:50:00;;;;;;;5.45;4.95;;;6.10;99.90;;;;;;5051384;28;20196;-52
2022/03/02 06:52:33;;;;;;;6.75;5.68;;;6.10;99.90;;;;;;5047135;28;20220;-52
2022/03/02 06:55:04;;;;;;;7.93;5.15;;;6.10;99.90;;;;;;5053073;28;20280;-53
2022/03/02 06:57:33;;;;;;;5.85;4.70;;;6.10;99.90;;;;;;5052886;28;20224;-53
2022/03/02 07:00:06;;;;;;;5.90;5.30;;;6.10;99.90;;;;;;5047720;28;20200;-54
2022/03/02 07:02:40;;;;;;;4.95;4.45;;;6.10;99.90;;;;;;5051658;28;20608;-53
2022/03/02 07:05:10;;;;;;;6.57;4.45;;;6.10;99.90;;;;;;5051836;28;20187;-52
2022/03/02 07:07:38;;;;;;;5.38;4.88;;;6.10;99.90;;;;;;5052602;28;20216;-52
2022/03/02 07:10:09;;;;;;;6.15;5.55;;;6.10;99.90;;;;;;5053136;28;20189;-53
2022/03/02 07:12:39;;;;;;;6.60;5.32;;;6.10;99.90;;;;;;5051423;28;20267;-51
2022/03/02 07:15:09;;;;;;;5.15;4.55;;;6.10;99.90;;;;;;5038997;28;20198;-54
2022/03/02 07:17:39;;;;;;;6.50;5.40;;;6.10;99.90;;;;;;5043024;28;20235;-52
2022/03/02 07:20:09;;;;;;;9.70;5.82;;;6.10;99.90;;;;;;5048291;28;20193;-51
2022/03/02 07:22:43;;;;;;;5.60;5.10;;;6.10;99.90;;;;;;5046029;28;20278;-52
2022/03/02 07:25:20;;;;;;;7.70;5.40;;;6.10;99.90;;;;;;5052935;28;20257;-53
2022/03/02 07:27:50;;;;;;;8.02;5.95;;;6.10;99.90;;;;;;5050906;28;20729;-53
2022/03/02 07:30:18;;;;;;;9.52;6.47;;;6.10;99.90;;;;;;5039651;28;20213;-52
2022/03/02 07:32:48;;;;;;;7.55;5.82;;;6.00;99.90;;;;;;5034856;28;20637;-52
2022/03/02 07:35:18;;;;;;;7.35;6.22;;;6.00;99.90;;;;;;5052238;28;20227;-53
2022/03/02 07:37:47;;;;;;;9.20;6.13;;;6.00;99.90;;;;;;5053191;28;20226;-53
2022/03/02 07:40:17;;;;;;;7.55;5.70;;;6.00;99.90;;;;;;5051916;28;20192;-53
2022/03/02 07:42:45;;;;;;;6.00;5.10;;;6.00;99.90;;;;;;5051746;28;20216;-52
2022/03/02 07:45:13;;;;;;;8.43;5.93;;;6.00;99.90;;;;;;5043919;28;20197;-51
2022/03/02 07:47:41;;;;;;;6.30;5.40;;;6.00;99.90;;;;;;5032356;28;20216;-53
2022/03/02 07:50:10;;;;;;;7.10;5.90;;;6.00;99.90;;;;;;5041068;28;20193;-54
2022/03/02 07:52:40;;;;;;;9.15;5.45;;;6.00;99.90;;;;;;5032096;28;20244;-52
2022/03/02 07:55:09;;;;;;;9.85;5.75;;;6.00;99.90;;;;;;5045810;28;20228;-53
2022/03/02 07:57:40;;;;;;;6.20;4.47;;;6.00;99.90;;;;;;5052135;28;20232;-55
2022/03/02 08:00:11;;;;;;;6.72;4.93;;;6.10;99.90;;;;;;5047406;28;20193;-51
2022/03/02 08:02:41;;;;;;;6.88;5.20;;;6.10;99.90;;;;;;5050646;28;20223;-54
2022/03/02 08:05:12;;;;;;;6.13;5.47;;;6.10;99.90;;;;;;5041895;28;20197;-53
2022/03/02 08:07:41;;;;;;;6.82;5.32;;;6.10;99.90;;;;;;5045709;28;20242;-53
2022/03/02 08:10:10;;;;;;;10.40;4.82;;;6.10;99.90;;;;;;5052575;28;20223;-54
2022/03/02 08:12:40;;;;;;;5.45;4.68;;;6.10;99.90;;;;;;5051956;28;20254;-51
2022/03/02 08:15:09;;;;;;;5.75;4.35;;;6.10;99.90;;;;;;5051021;28;20307;-52
2022/03/02 08:17:38;;;;;;;5.10;4.60;;;6.10;99.90;;;;;;5051500;28;20304;-53
2022/03/02 08:20:08;;;;;;;4.57;3.67;;;6.10;99.90;;;;;;5047539;28;20185;-53
2022/03/02 08:22:46;;;;;;;6.07;4.20;;;6.10;99.90;;;;;;5035224;28;20587;-54
2022/03/02 08:25:18;;;;;;;5.32;4.57;;;6.10;99.90;;;;;;5051002;28;20200;-54
2022/03/02 08:27:48;;;;;;;5.10;4.38;;;6.10;99.90;;;;;;5050337;28;20220;-53
2022/03/02 08:30:16;;;;;;;4.97;4.47;;;6.10;99.90;;;;;;5051645;28;20239;-52
2022/03/02 08:32:46;;;;;;;5.55;5.03;;;6.10;99.90;;;;;;5051746;28;20232;-54
2022/03/02 08:35:16;;;;;;;7.05;5.22;;;6.20;99.90;;;;;;5050379;28;20192;-53
2022/03/02 08:37:44;;;;;;;7.47;5.35;;;6.20;99.90;;;;;;5051071;28;20234;-54
2022/03/02 08:40:14;;;;;;;7.07;5.50;;;6.20;99.90;;;;;;5051235;28;20648;-54
2022/03/02 08:42:42;;;;;;;4.10;3.70;;;6.20;99.90;;;;;;5031240;28;20319;-52
2022/03/02 08:45:12;;;;;;;5.32;4.53;;;6.20;99.90;;;;;;5049678;28;20251;-53
2022/03/02 08:47:40;;;;;;;7.43;5.20;;;6.20;99.90;;;;;;5051018;28;20223;-54
2022/03/02 08:50:09;;;;;;;6.50;4.43;;;6.20;99.90;;;;;;5046765;28;20215;-54
2022/03/02 08:52:38;;;;;;;8.18;6.03;;;6.20;99.90;;;;;;5031026;28;20227;-54
2022/03/02 08:55:10;;;;;;;6.15;4.80;;;6.20;99.90;;;;;;5049692;28;20644;-53
2022/03/02 08:57:42;;;;;;;7.00;5.78;;;6.20;99.90;;;;;;5050633;28;20626;-53
2022/03/02 09:00:14;;;;;;;6.25;4.45;;;6.20;99.90;;;;;;5039083;28;20292;-53
2022/03/02 09:02:44;;;;;;;6.15;4.93;;;6.20;99.90;;;;;;5031656;28;20712;-53
2022/03/02 09:05:12;;;;;;;5.50;4.53;;;6.30;99.90;;;;;;5045554;28;20189;-52
2022/03/02 09:07:41;;;;;;;7.30;5.60;;;6.30;99.90;;;;;;5041365;28;20282;-53
2022/03/02 09:10:10;;;;;;;7.28;5.20;;;6.30;99.90;;;;;;5022472;28;20201;-52
2022/03/02 09:12:41;;;;;;;5.75;4.90;;;6.30;99.90;;;;;;5030650;28;20660;-53
2022/03/02 09:15:11;;;;;;;6.45;5.60;;;6.30;99.90;;;;;;5033913;28;20234;-53
2022/03/02 09:17:40;;;;;;;5.82;4.90;;;6.30;99.90;;;;;;5030699;28;20275;-53
2022/03/02 09:20:10;;;;;;;6.18;5.30;;;6.30;99.90;;;;;;5030555;28;20684;-52
2022/03/02 09:22:41;;;;;;;7.35;5.38;;;6.30;99.90;;;;;;5030788;28;20233;-53
2022/03/02 09:25:10;;;;;;;6.28;5.10;;;6.30;99.90;;;;;;5030798;28;20668;-52
2022/03/02 09:27:38;;;;;;;6.30;4.32;;;6.30;99.90;;;;;;5030235;28;20221;-53
2022/03/02 09:30:09;;;;;;;6.00;5.40;;;6.30;99.90;;;;;;5039802;28;20603;-53
2022/03/02 09:32:42;;;;;;;7.75;6.18;;;6.30;99.90;;;;;;5050101;28;20251;-51
2022/03/02 09:35:13;;;;;;;6.07;5.47;;;6.30;99.90;;;;;;5047445;28;20754;-53
2022/03/02 09:37:48;;;;;;;5.45;4.88;;;6.40;99.90;;;;;;5050467;28;20248;-51
2022/03/02 09:40:24;;;;;;;6.40;5.80;;;6.40;99.90;;;;;;5049727;28;20215;-53
2022/03/02 09:42:58;;;;;;;6.78;5.00;;;6.40;99.90;;;;;;5038427;28;20299;-53
2022/03/02 09:45:28;;;;;;;8.32;5.15;;;6.40;99.90;;;;;;5050124;28;20188;-52
2022/03/02 09:48:00;;;;;;;7.40;5.70;;;6.40;99.90;;;;;;5049422;28;20215;-53
2022/03/02 09:50:32;;;;;;;6.68;4.65;;;6.40;99.90;;;;;;5048494;28;20212;-53
2022/03/02 09:53:03;;;;;;;6.18;5.47;;;6.40;99.90;;;;;;5047502;28;20212;-52
2022/03/02 09:55:31;;;;;;;6.20;5.00;;;6.40;99.90;;;;;;5049631;28;20212;-52
2022/03/02 09:58:01;;;;;;;6.28;5.68;;;6.40;99.90;;;;;;5046295;28;20565;-51
2022/03/02 10:00:30;;;;;;;7.68;5.72;;;6.40;99.90;;;;;;5050094;28;20640;-52
2022/03/02 10:03:01;;;;;;;6.15;4.90;;;6.40;99.90;;;;;;5030720;28;20265;-53
2022/03/02 10:05:32;;;;;;;6.50;5.07;;;6.40;99.90;;;;;;5042735;28;20217;-53
2022/03/02 10:08:02;;;;;;;6.15;4.85;;;6.40;99.90;;;;;;5049791;28;20227;-52
2022/03/02 10:10:33;;;;;;;7.25;5.40;;;6.40;99.90;;;;;;5032040;28;20193;-53
2022/03/02 10:13:03;;;;;;;5.57;4.85;;;6.40;99.90;;;;;;5031379;28;20277;-53
2022/03/02 10:15:33;;;;;;;6.20;5.00;;;6.40;99.90;;;;;;5043327;28;20355;-54
2022/03/02 10:18:07;;;;;;;5.65;4.65;;;6.40;99.90;;;;;;5048963;28;20595;-52
2022/03/02 10:20:38;;;;;;;4.82;4.32;;;6.40;99.90;;;;;;5040951;28;20212;-53
2022/03/02 10:23:35;;;;;;;5.65;4.57;;;6.40;99.90;;;;;;5028839;28;20283;-52
2022/03/02 10:26:06;;;;;;;5.70;5.07;;;6.40;99.90;;;;;;5046426;28;20185;-54
2022/03/02 10:28:45;;;;;;;6.03;5.32;;;6.40;99.90;;;;;;5039981;28;20219;-53
2022/03/02 10:31:39;;;;;;;4.72;4.00;;;6.40;99.90;;;;;;5047867;28;20212;-53
2022/03/02 10:34:32;;;;;;;6.93;5.35;;;6.40;99.90;;;;;;5049322;28;20664;-53
2022/03/02 10:37:17;;;;;;;5.60;4.75;;;6.40;99.90;;;;;;5030268;28;20236;-52
2022/03/02 10:39:58;;;;;;;5.68;5.10;;;6.40;99.90;;;;;;5031091;28;20197;-52
2022/03/02 10:42:28;;;;;;;5.03;4.55;;;6.40;99.90;;;;;;5048621;28;20635;-54
2022/03/02 10:45:22;;;;;;;6.50;5.00;;;6.40;99.90;;;;;;5046682;28;20284;-53
2022/03/02 10:48:02;;;;;;;6.68;4.70;;;6.40;99.90;;;;;;5049540;28;20212;-53
2022/03/02 10:50:34;;;;;;;5.05;3.85;;;6.40;99.90;;;;;;5042054;28;20189;-51
2022/03/02 10:53:04;;;;;;;5.15;4.07;;;6.40;99.90;;;;;;5049204;28;20295;-54
2022/03/02 10:55:34;;;;;;;6.15;4.80;;;6.40;99.90;;;;;;5049580;28;20644;-52
2022/03/02 10:58:04;;;;;;;6.00;5.05;;;6.40;99.90;;;;;;5049250;28;20282;-55
2022/03/02 11:00:33;;;;;;;5.32;4.72;;;6.40;99.90;;;;;;5048098;28;20192;-54
2022/03/02 11:03:03;;;;;;;5.20;4.70;;;6.40;99.90;;;;;;5049429;28;20216;-53
2022/03/02 11:05:33;;;;;;;5.95;4.55;;;6.40;99.90;;;;;;5041153;28;20194;-55
2022/03/02 11:08:01;;;;;;;5.93;4.85;;;6.40;99.90;;;;;;5043144;28;20212;-52
2022/03/02 11:10:33;;;;;;;6.05;3.70;;;6.40;99.90;;;;;;5012317;28;20300;-52
2022/03/02 11:13:05;;;;;;;5.78;5.28;;;6.30;99.90;;;;;;5029432;28;20216;-52
2022/03/02 11:15:46;;;;;;;4.20;3.80;;;6.40;99.90;;;;;;5030433;28;20189;-53
2022/03/02 11:18:17;;;;;;;5.93;5.32;;;6.40;99.90;;;;;;5033109;28;20227;-53
2022/03/02 11:21:00;;;;;;;4.45;4.05;;;6.40;99.90;;;;;;5041440;28;20213;-53
2022/03/02 11:23:33;;;;;;;6.35;4.53;;;6.40;99.90;;;;;;5044874;28;20270;-54
2022/03/02 11:26:07;;;;;;;10.38;5.18;;;6.40;99.90;;;;;;5053275;28;20227;-52
2022/03/02 11:28:36;;;;;;;6.15;3.92;;;6.40;99.90;;;;;;5052261;28;20217;-52
2022/03/02 11:31:08;;;;;;;5.78;4.70;;;6.40;99.90;;;;;;5046393;28;20764;-51
2022/03/02 11:33:37;;;;;;;4.93;3.83;;;6.40;99.90;;;;;;5051351;28;20295;-52
2022/03/02 11:36:17;;;;;;;5.85;4.93;;;6.40;99.90;;;;;;5039493;28;20220;-52
2022/03/02 11:38:50;;;;;;;5.50;4.03;;;6.40;99.90;;;;;;5048137;28;20595;-53
2022/03/02 11:41:18;;;;;;;5.22;4.10;;;6.40;99.90;;;;;;5053096;28;20213;-52
2022/03/02 11:43:49;;;;;;;4.43;4.03;;;6.40;99.90;;;;;;5049461;28;20224;-54
2022/03/02 11:46:17;;;;;;;5.03;4.45;;;6.40;99.90;;;;;;5032874;28;20201;-53
2022/03/02 11:48:46;;;;;;;4.95;4.00;;;6.40;99.90;;;;;;5050729;28;20671;-53
2022/03/02 11:51:21;;;;;;;6.25;4.72;;;6.40;99.90;;;;;;5038886;28;20585;-53
2022/03/02 11:53:53;;;;;;;5.32;4.05;;;6.40;99.90;;;;;;5049484;28;20683;-53
2022/03/02 11:56:26;;;;;;;5.22;4.43;;;6.40;99.90;;;;;;5051638;28;20331;-53
2022/03/02 11:58:57;;;;;;;4.32;3.75;;;6.40;99.90;;;;;;5014953;28;20278;-52
2022/03/02 12:01:46;;;;;;;4.40;4.00;;;6.40;99.90;;;;;;5050895;28;20231;-51
2022/03/02 12:04:32;;;;;;;4.10;3.70;;;6.40;99.90;;;;;;5050839;28;20188;-55
2022/03/02 12:07:06;;;;;;;5.82;4.63;;;6.30;99.90;;;;;;5050722;28;20227;-52
2022/03/02 12:09:36;;;;;;;3.78;3.30;;;6.40;99.90;;;;;;5052669;28;20618;-53
2022/03/02 12:12:15;;;;;;;6.07;4.68;;;6.40;99.90;;;;;;5052010;28;20228;-52
2022/03/02 12:14:48;;;;;;;4.35;3.95;;;6.40;99.90;;;;;;5040248;28;20217;-53
2022/03/02 12:17:22;;;;;;;4.55;3.75;;;6.40;99.90;;;;;;5032212;28;20236;-53
2022/03/02 12:19:53;;;;;;;4.45;3.58;;;6.40;99.90;;;;;;5046361;28;20212;-53
2022/03/02 12:22:23;;;;;;;4.20;3.70;;;6.40;99.90;;;;;;5052024;28;20270;-52
2022/03/02 12:24:51;;;;;;;4.32;3.92;;;6.40;99.90;;;;;;5051592;28;20288;-51
2022/03/02 12:27:20;;;;;;;4.30;3.90;;;6.40;99.90;;;;;;5049012;28;20220;-53
2022/03/02 12:29:57;;;;;;;3.78;3.28;;;6.40;99.90;;;;;;5031626;28;20193;-53
2022/03/02 12:32:29;;;;;;;4.78;4.18;;;6.40;99.90;;;;;;5031584;28;20221;-52
2022/03/02 12:34:58;;;;;;;4.95;4.20;;;6.40;99.90;;;;;;5031355;28;20201;-54
2022/03/02 12:37:29;;;;;;;3.50;3.20;;;6.40;99.90;;;;;;5031753;28;20231;-53
2022/03/02 12:39:58;;;;;;;5.07;4.65;;;6.40;99.90;;;;;;5031923;28;20209;-52
2022/03/02 12:42:26;;;;;;;5.15;4.40;;;6.40;99.90;;;;;;5031474;28;20308;-52
2022/03/02 12:44:57;;;;;;;5.45;4.50;;;6.40;99.90;;;;;;5030794;28;20219;-53
2022/03/02 12:47:27;;;;;;;4.40;3.97;;;6.40;99.90;;;;;;5031621;28;20231;-53
2022/03/02 12:49:57;;;;;;;3.60;3.30;;;6.40;99.90;;;;;;5043787;28;20710;-53
2022/03/02 12:52:28;;;;;;;4.65;3.88;;;6.40;99.90;;;;;;5030663;28;20643;-53
2022/03/02 12:55:00;;;;;;;4.32;3.50;;;6.40;99.90;;;;;;5031477;28;20185;-52
2022/03/02 12:57:30;;;;;;;5.35;3.90;;;6.40;99.90;;;;;;5031308;28;20217;-53
2022/03/02 13:00:00;;;;;;;6.40;4.00;;;6.40;99.90;;;;;;5045437;28;20205;-53
2022/03/02 13:02:31;;;;;;;4.50;4.03;;;6.40;99.90;;;;;;5047947;28;20285;-51
2022/03/02 13:05:08;;;;;;;5.68;4.68;;;6.40;99.90;;;;;;5047905;28;20550;-52
2022/03/02 13:07:51;;;;;;;6.10;4.30;;;6.40;99.90;;;;;;5049700;28;20675;-53
2022/03/02 13:10:23;;;;;;;4.78;4.38;;;6.40;99.90;;;;;;5048209;28;20276;-54
2022/03/02 13:12:55;;;;;;;4.00;3.60;;;6.40;99.90;;;;;;5047662;28;20576;-53